Time;durP1;ratioP1;P1;durP2;ratioP2;P2;SDS_P1;SDS_P2;PMS_P1;PMS_P2;Temp;Humidity;BMP_temperature;BMP_pressure;BME280_temperature;BME280_humidity;BME280_pressure;Samples;Min_cycle;Max_cycle;Signal;HPM_P1;HPM_P2
2021/05/27 00:01:55;;;;;;;9.65;2.95;;;;;;;9.45;77.76;100221.69;5034959;28;20083;-65
2021/05/27 00:04:20;;;;;;;8.15;2.28;;;;;;;9.54;77.96;100216.97;5034580;28;20030;-65
2021/05/27 00:06:46;;;;;;;4.03;1.80;;;;;;;9.56;77.33;100215.38;5053071;28;20020;-65
2021/05/27 00:09:11;;;;;;;4.03;2.05;;;;;;;9.39;78.06;100222.28;5054709;28;20032;-65
2021/05/27 00:11:37;;;;;;;7.78;2.92;;;;;;;9.46;77.49;100218.31;5053356;28;20056;-65
2021/05/27 00:14:03;;;;;;;9.38;2.47;;;;;;;9.32;78.41;100217.66;5039851;28;20072;-65
2021/05/27 00:16:30;;;;;;;6.18;2.30;;;;;;;9.25;78.49;100224.22;5033442;28;20030;-64
2021/05/27 00:18:56;;;;;;;9.45;2.10;;;;;;;9.44;77.97;100219.94;5033470;28;20478;-66
2021/05/27 00:21:21;;;;;;;7.63;2.20;;;;;;;9.49;78.96;100218.47;5034391;28;20044;-65
2021/05/27 00:23:47;;;;;;;7.07;2.38;;;;;;;9.67;79.23;100223.59;5036052;28;20383;-65
2021/05/27 00:26:13;;;;;;;7.28;3.40;;;;;;;9.46;79.63;100208.03;5037885;28;20024;-65
2021/05/27 00:28:39;;;;;;;4.88;2.10;;;;;;;9.41;79.79;100214.66;5053114;28;20036;-66
2021/05/27 00:31:05;;;;;;;7.57;2.30;;;;;;;9.41;79.45;100212.09;5054334;28;20096;-65
2021/05/27 00:33:31;;;;;;;5.20;2.40;;;;;;;9.29;78.90;100220.97;5043885;28;20511;-65
2021/05/27 00:35:56;;;;;;;4.95;2.33;;;;;;;9.29;79.78;100210.69;5033137;28;20025;-65
2021/05/27 00:38:22;;;;;;;3.65;2.40;;;;;;;9.43;79.38;100213.03;5034210;28;20492;-66
2021/05/27 00:40:48;;;;;;;8.13;2.97;;;;;;;9.55;79.11;100217.88;5016429;28;20531;-65
2021/05/27 00:43:13;;;;;;;9.88;2.70;;;;;;;9.50;79.06;100222.78;5038318;28;20025;-65
2021/05/27 00:45:38;;;;;;;6.88;2.78;;;;;;;9.40;79.46;100228.31;5049156;28;20029;-65
2021/05/27 00:48:04;;;;;;;8.70;3.42;;;;;;;9.25;79.23;100224.22;5053003;28;20079;-65
2021/05/27 00:50:30;;;;;;;4.43;2.53;;;;;;;9.35;79.36;100231.56;5044210;28;20041;-65
2021/05/27 00:52:56;;;;;;;4.38;2.20;;;;;;;9.28;79.18;100229.50;5034050;28;20025;-65
2021/05/27 00:55:23;;;;;;;6.22;2.60;;;;;;;9.30;80.03;100227.88;5033995;28;20018;-64
2021/05/27 00:57:50;;;;;;;9.48;2.35;;;;;;;9.33;79.55;100228.03;5032703;28;20057;-65
2021/05/27 01:00:35;;;;;;;4.75;2.47;;;;;;;9.32;79.71;100226.25;5033753;28;20048;-65
2021/05/27 01:03:01;;;;;;;7.18;1.75;;;;;;;9.31;79.27;100229.66;5043320;28;20051;-65
2021/05/27 01:05:28;;;;;;;9.48;2.35;;;;;;;9.35;78.74;100231.56;5052443;28;20463;-65
2021/05/27 01:07:54;;;;;;;3.47;1.83;;;;;;;9.41;78.88;100224.94;5053608;28;20032;-65
2021/05/27 01:10:20;;;;;;;4.75;2.00;;;;;;;9.12;79.65;100230.44;5045828;28;20029;-65
2021/05/27 01:12:45;;;;;;;6.18;2.00;;;;;;;9.43;79.50;100233.59;5032268;28;20045;-65
2021/05/27 01:15:27;;;;;;;6.47;2.47;;;;;;;9.39;79.63;100226.56;5032448;28;20096;-65
2021/05/27 01:17:53;;;;;;;6.00;2.13;;;;;;;9.30;80.19;100227.88;5032352;28;20028;-65
2021/05/27 01:20:19;;;;;;;9.88;2.67;;;;;;;9.24;80.39;100230.16;5039034;28;20203;-65
2021/05/27 01:22:44;;;;;;;6.63;1.95;;;;;;;9.30;80.39;100227.88;5035097;28;20180;-65
2021/05/27 01:25:12;;;;;;;5.80;1.90;;;;;;;9.38;80.37;100229.94;5053387;28;20032;-65
2021/05/27 01:27:38;;;;;;;5.70;2.03;;;;;;;9.14;80.79;100220.25;5050549;28;20082;-65
2021/05/27 01:30:07;;;;;;;5.80;2.53;;;;;;;9.38;81.02;100225.66;5051951;28;20029;-65
2021/05/27 01:32:33;;;;;;;4.85;1.55;;;;;;;9.20;80.30;100217.97;5051654;28;20036;-65
2021/05/27 01:34:59;;;;;;;11.75;2.13;;;;;;;9.20;80.52;100221.41;5035712;28;20029;-65
2021/05/27 01:37:24;;;;;;;3.10;1.60;;;;;;;9.27;80.67;100222.59;5030172;28;20036;-65
2021/05/27 01:39:50;;;;;;;5.60;1.63;;;;;;;9.27;80.69;100227.75;5033370;28;20549;-65
2021/05/27 01:42:15;;;;;;;13.57;1.90;;;;;;;9.28;80.68;100224.34;5033064;28;20103;-65
2021/05/27 01:44:42;;;;;;;2.75;1.63;;;;;;;9.31;79.97;100229.66;5033216;28;20498;-65
2021/05/27 01:47:08;;;;;;;6.25;1.80;;;;;;;9.27;80.32;100226.84;5031957;28;20379;-65
2021/05/27 01:49:33;;;;;;;7.30;2.20;;;;;;;9.23;80.82;100230.06;5032684;28;20037;-65
2021/05/27 01:51:59;;;;;;;5.95;2.20;;;;;;;9.32;80.71;100231.41;5033045;28;20433;-65
2021/05/27 01:54:24;;;;;;;7.63;2.75;;;;;;;9.25;80.41;100237.06;5031744;28;20032;-65
2021/05/27 01:56:50;;;;;;;5.45;2.13;;;;;;;9.26;80.72;100231.13;5031864;28;20033;-65
2021/05/27 01:59:16;;;;;;;4.10;2.00;;;;;;;9.16;80.36;100240.06;5033989;28;20102;-65
2021/05/27 02:01:41;;;;;;;6.80;2.72;;;;;;;9.01;81.83;100237.66;5044917;28;20028;-65
2021/05/27 02:04:07;;;;;;;11.07;2.28;;;;;;;9.24;81.33;100243.00;5052789;28;20025;-66
2021/05/27 02:06:32;;;;;;;7.07;1.90;;;;;;;9.33;81.07;100238.31;5033815;28;20087;-65
2021/05/27 02:09:09;;;;;;;4.70;2.05;;;;;;;9.39;80.95;100232.56;5031777;28;20032;-65
2021/05/27 02:11:37;;;;;;;3.70;1.42;;;;;;;9.48;80.48;100232.13;5031704;28;20025;-65
2021/05/27 02:14:04;;;;;;;7.88;2.10;;;;;;;9.41;80.35;100222.38;5031380;28;20049;-65
2021/05/27 02:16:29;;;;;;;6.82;2.03;;;;;;;9.29;80.07;100231.25;5039498;28;20033;-65
2021/05/27 02:18:55;;;;;;;5.22;2.05;;;;;;;9.19;81.63;100229.06;5031406;28;20032;-65
2021/05/27 02:21:21;;;;;;;4.97;2.15;;;;;;;9.16;81.85;100223.78;5034121;28;20025;-65
2021/05/27 02:23:46;;;;;;;5.40;2.10;;;;;;;9.24;81.71;100227.59;5040104;28;20056;-64
2021/05/27 02:26:11;;;;;;;4.40;2.05;;;;;;;9.18;81.12;100238.44;5042538;28;20115;-65
2021/05/27 02:28:37;;;;;;;9.50;2.13;;;;;;;9.24;81.16;100235.31;5047550;28;20103;-65
2021/05/27 02:31:02;;;;;;;5.07;1.20;;;;;;;9.14;81.03;100231.41;5051346;28;20115;-65
2021/05/27 02:33:28;;;;;;;2.88;1.27;;;;;;;9.06;80.31;100223.34;5043633;28;20065;-65
2021/05/27 02:35:54;;;;;;;2.85;1.23;;;;;;;8.99;80.18;100235.78;5049955;28;20028;-65
2021/05/27 02:38:19;;;;;;;2.90;1.10;;;;;;;9.01;81.82;100229.03;5048506;28;20025;-65
2021/05/27 02:40:45;;;;;;;2.80;1.08;;;;;;;9.04;81.21;100230.09;5036470;28;20075;-65
2021/05/27 02:43:10;;;;;;;3.78;1.15;;;;;;;9.02;82.03;100236.84;5035237;28;20057;-65
2021/05/27 02:45:36;;;;;;;5.32;1.92;;;;;;;8.84;82.74;100234.22;5039096;28;20125;-66
2021/05/27 02:48:01;;;;;;;5.10;1.50;;;;;;;9.01;81.41;100229.94;5035265;28;20018;-66
2021/05/27 02:50:26;;;;;;;6.10;1.30;;;;;;;8.98;80.30;100229.75;5036342;28;20022;-66
2021/05/27 02:52:52;;;;;;;6.22;2.03;;;;;;;8.97;80.72;100228.00;5035037;28;20037;-66
2021/05/27 02:55:17;;;;;;;5.35;1.55;;;;;;;9.18;80.78;100217.03;5036298;28;20056;-66
2021/05/27 02:57:43;;;;;;;8.70;1.88;;;;;;;8.88;80.28;100219.84;5036786;28;20021;-67
2021/05/27 03:00:09;;;;;;;7.35;1.45;;;;;;;8.87;81.18;100221.53;5035473;28;20470;-66
2021/05/27 03:02:35;;;;;;;5.68;1.13;;;;;;;9.00;79.35;100223.00;5048643;28;20458;-66
2021/05/27 03:05:00;;;;;;;4.15;1.30;;;;;;;9.06;79.12;100218.19;5054505;28;20052;-66
2021/05/27 03:07:25;;;;;;;4.95;1.27;;;;;;;9.17;79.67;100226.41;5039104;28;20038;-66
2021/05/27 03:09:51;;;;;;;4.55;1.38;;;;;;;9.23;80.34;100224.94;5039985;28;20025;-66
2021/05/27 03:12:16;;;;;;;2.67;0.93;;;;;;;9.18;80.39;100217.03;5044569;28;20074;-66
2021/05/27 03:14:42;;;;;;;3.58;1.10;;;;;;;9.14;80.39;100227.97;5044320;28;20029;-66
2021/05/27 03:17:07;;;;;;;3.78;1.30;;;;;;;8.95;79.98;100216.75;5044245;28;20029;-66
2021/05/27 03:19:32;;;;;;;4.43;1.50;;;;;;;9.12;80.29;100216.72;5044330;28;20029;-66
2021/05/27 03:21:58;;;;;;;7.45;1.50;;;;;;;8.88;79.80;100202.75;5046013;28;20018;-65
2021/05/27 03:24:23;;;;;;;6.00;1.90;;;;;;;8.71;81.65;100219.88;5044235;28;20013;-66
2021/05/27 03:26:51;;;;;;;6.30;1.48;;;;;;;8.73;82.05;100204.56;5044820;28;20067;-66
2021/05/27 03:29:18;;;;;;;4.70;1.75;;;;;;;8.82;82.97;100201.56;5045580;28;20029;-66
2021/05/27 03:31:43;;;;;;;2.67;1.13;;;;;;;8.77;81.99;100209.91;5042806;28;20100;-66
2021/05/27 03:34:09;;;;;;;3.92;1.00;;;;;;;8.42;83.77;100206.44;5048414;28;20036;-66
2021/05/27 03:36:34;;;;;;;4.65;1.10;;;;;;;8.57;83.27;100201.25;5042340;28;20030;-66
2021/05/27 03:39:00;;;;;;;1.80;0.80;;;;;;;8.66;82.60;100205.06;5045625;28;20093;-67
2021/05/27 03:41:26;;;;;;;1.50;1.02;;;;;;;8.62;82.48;100204.03;5053852;28;20031;-66
2021/05/27 03:43:51;;;;;;;3.05;1.30;;;;;;;8.55;83.36;100201.94;5055027;28;20028;-66
2021/05/27 03:46:17;;;;;;;3.70;0.80;;;;;;;8.64;82.71;100197.28;5049352;28;20098;-67
2021/05/27 03:48:42;;;;;;;2.22;1.10;;;;;;;8.65;82.58;100204.16;5033990;28;20056;-66
2021/05/27 03:51:07;;;;;;;2.97;1.00;;;;;;;8.63;82.90;100216.06;5035266;28;20068;-66
2021/05/27 03:53:33;;;;;;;4.40;1.00;;;;;;;8.50;82.25;100208.53;5033970;28;20028;-66
2021/05/27 03:55:58;;;;;;;2.33;1.20;;;;;;;8.43;82.95;100209.88;5036113;28;20030;-67
2021/05/27 04:01:07;;;;;;;6.45;1.40;;;;;;;8.61;83.06;100212.53;5054112;28;20072;-66
2021/05/27 04:07:08;;;;;;;3.38;1.02;;;;;;;8.42;82.58;100206.44;5054846;28;20467;-66
2021/05/27 04:09:03;;;;;;;1.65;1.40;;;;;;;8.33;83.55;100221.38;5034698;28;20079;-66
2021/05/27 04:11:29;;;;;;;5.15;1.00;;;;;;;8.25;83.99;100214.97;5034846;28;20100;-66
2021/05/27 04:13:54;;;;;;;2.42;0.90;;;;;;;8.50;83.57;100218.81;5038345;28;20047;-66
2021/05/27 04:16:19;;;;;;;2.83;1.00;;;;;;;8.40;84.91;100222.53;5053503;28;20086;-66
2021/05/27 04:18:45;;;;;;;4.20;1.17;;;;;;;8.32;85.51;100222.16;5039580;28;20052;-66
2021/05/27 04:21:10;;;;;;;5.50;1.05;;;;;;;8.48;85.84;100217.00;5033553;28;20029;-67
2021/05/27 04:23:36;;;;;;;1.95;1.10;;;;;;;8.59;86.45;100220.16;5036815;28;20064;-67
2021/05/27 04:26:10;;;;;;;1.95;0.90;;;;;;;8.61;85.75;100212.53;5054536;28;20073;-66
2021/05/27 04:28:37;;;;;;;4.40;1.10;;;;;;;8.38;85.88;100214.78;5053225;28;20381;-66
2021/05/27 04:31:09;;;;;;;5.05;1.38;;;;;;;8.56;87.34;100219.13;5053119;28;20027;-67
2021/05/27 04:33:39;;;;;;;3.00;1.13;;;;;;;8.54;86.59;100220.72;5050336;28;20029;-66
2021/05/27 04:36:08;;;;;;;3.78;1.50;;;;;;;8.43;87.66;100228.72;5033250;28;20024;-67
2021/05/27 04:38:33;;;;;;;3.38;1.42;;;;;;;8.68;88.53;100224.88;5033156;28;20036;-66
2021/05/27 04:40:59;;;;;;;2.20;1.33;;;;;;;8.51;88.33;100231.75;5034310;28;20029;-66
2021/05/27 04:43:24;;;;;;;6.55;1.85;;;;;;;8.64;89.20;100228.09;5033131;28;20471;-66
2021/05/27 04:45:50;;;;;;;6.93;1.75;;;;;;;8.71;89.14;100229.28;5054243;28;20025;-66
2021/05/27 04:48:16;;;;;;;7.38;3.38;;;;;;;8.65;89.36;100224.72;5040648;28;20026;-67
2021/05/27 04:50:43;;;;;;;6.88;2.13;;;;;;;8.72;89.13;100237.06;5032845;28;20028;-66
2021/05/27 04:53:10;;;;;;;7.78;2.30;;;;;;;9.08;89.04;100235.38;5032718;28;20353;-67
2021/05/27 04:55:36;;;;;;;6.45;2.75;;;;;;;9.01;88.60;100235.06;5032823;28;20032;-66
2021/05/27 04:58:02;;;;;;;8.63;2.85;;;;;;;8.90;88.65;100238.78;5041866;28;20083;-67
2021/05/27 05:00:28;;;;;;;12.35;2.60;;;;;;;8.99;88.67;100241.78;5050645;28;20056;-67
2021/05/27 05:02:56;;;;;;;6.28;2.65;;;;;;;9.07;88.21;100239.59;5026896;28;20022;-66
2021/05/27 05:05:23;;;;;;;6.00;2.65;;;;;;;8.86;88.94;100247.13;5032650;28;20028;-67
2021/05/27 05:07:49;;;;;;;6.13;2.58;;;;;;;8.99;88.88;100241.78;5032807;28;20025;-66
2021/05/27 05:10:16;;;;;;;7.78;2.10;;;;;;;8.71;89.43;100250.69;5032546;28;20467;-66
2021/05/27 05:12:49;;;;;;;9.52;2.97;;;;;;;8.79;91.17;100252.75;5015733;28;20037;-66
2021/05/27 05:15:16;;;;;;;4.53;2.33;;;;;;;9.02;90.83;100252.25;5040005;28;20025;-67
2021/05/27 05:17:42;;;;;;;9.13;3.60;;;;;;;8.96;90.49;100262.19;5053744;28;20029;-66
2021/05/27 05:20:09;;;;;;;7.47;3.75;;;;;;;8.96;90.58;100261.31;5052099;28;20063;-66
2021/05/27 05:22:34;;;;;;;7.38;3.70;;;;;;;8.96;91.20;100272.47;5040247;28;20037;-66
2021/05/27 05:25:00;;;;;;;10.40;4.13;;;;;;;8.97;91.71;100270.78;5046393;28;20385;-66
2021/05/27 05:27:26;;;;;;;9.70;3.47;;;;;;;8.96;91.41;100272.47;5037839;28;20056;-66
2021/05/27 05:29:52;;;;;;;6.30;3.28;;;;;;;9.06;90.95;100269.56;5038021;28;20470;-66
2021/05/27 05:32:17;;;;;;;5.85;3.30;;;;;;;9.12;90.86;100268.13;5033290;28;20037;-66
2021/05/27 05:34:43;;;;;;;11.32;4.03;;;;;;;9.18;89.37;100278.69;5033007;28;20017;-67
2021/05/27 05:37:09;;;;;;;9.20;4.32;;;;;;;9.33;89.49;100274.28;5050847;28;20036;-67
2021/05/27 05:39:34;;;;;;;8.13;4.05;;;;;;;9.17;90.42;100276.94;5051123;28;20098;-67
2021/05/27 05:42:00;;;;;;;5.07;2.97;;;;;;;9.43;89.68;100279.88;5041163;28;20188;-67
2021/05/27 05:44:25;;;;;;;7.53;2.75;;;;;;;9.34;88.29;100283.78;5034040;28;20047;-66
2021/05/27 05:46:51;;;;;;;8.77;2.70;;;;;;;9.29;88.49;100277.53;5044233;28;20028;-67
2021/05/27 05:49:16;;;;;;;6.05;2.55;;;;;;;9.27;89.63;100284.28;5040152;28;20057;-66
2021/05/27 05:51:41;;;;;;;8.45;2.78;;;;;;;9.48;89.06;100291.25;5033557;28;20036;-67
2021/05/27 05:54:07;;;;;;;4.88;2.05;;;;;;;9.43;88.03;100290.16;5037476;28;20024;-66
2021/05/27 05:56:32;;;;;;;8.45;2.55;;;;;;;9.51;88.75;100299.13;5033738;28;20041;-66
2021/05/27 05:58:58;;;;;;;6.00;2.17;;;;;;;9.50;88.02;100297.34;5047356;28;20024;-67
2021/05/27 06:01:23;;;;;;;6.53;2.20;;;;;;;9.71;87.98;100306.91;5051402;28;20107;-67
2021/05/27 06:03:51;;;;;;;6.53;2.33;;;;;;;9.87;87.29;100301.66;5050750;28;20130;-67
2021/05/27 06:06:16;;;;;;;5.35;2.00;;;;;;;9.88;86.05;100311.13;5038685;28;20020;-67
2021/05/27 06:08:42;;;;;;;4.43;2.40;;;;;;;9.98;85.31;100309.00;5050589;28;20035;-67
2021/05/27 06:11:07;;;;;;;6.57;2.30;;;;;;;10.17;85.10;100303.91;5051542;28;20021;-67
2021/05/27 06:13:33;;;;;;;4.22;2.20;;;;;;;10.38;83.58;100313.41;5050189;28;20041;-67
2021/05/27 06:15:59;;;;;;;5.35;2.08;;;;;;;10.59;82.82;100312.63;5032036;28;20037;-67
2021/05/27 06:18:25;;;;;;;4.95;2.00;;;;;;;10.67;81.95;100316.41;5031379;28;20056;-67
2021/05/27 06:20:51;;;;;;;7.88;2.08;;;;;;;10.61;81.11;100318.72;5015903;28;20052;-67
2021/05/27 06:23:17;;;;;;;3.65;1.58;;;;;;;10.73;81.62;100326.97;5038682;28;20041;-67
2021/05/27 06:25:42;;;;;;;4.97;1.92;;;;;;;10.82;81.43;100322.22;5071213;28;20039;-67
2021/05/27 06:28:08;;;;;;;7.43;2.00;;;;;;;10.65;82.51;100330.91;5063997;28;20092;-66
2021/05/27 06:30:33;;;;;;;4.65;1.55;;;;;;;10.59;81.96;100323.78;5052474;28;20078;-66
2021/05/27 06:33:01;;;;;;;3.58;1.80;;;;;;;10.55;82.27;100336.47;5052242;28;20024;-67
2021/05/27 06:35:26;;;;;;;6.53;2.05;;;;;;;10.72;82.20;100340.66;5047470;28;20375;-66
2021/05/27 06:37:52;;;;;;;5.05;1.90;;;;;;;11.08;81.44;100344.78;5049953;28;20021;-66
2021/05/27 06:40:20;;;;;;;8.95;3.10;;;;;;;10.77;81.36;100344.31;5050638;28;20107;-67
2021/05/27 06:42:46;;;;;;;6.18;2.10;;;;;;;11.30;78.70;100351.72;5042210;28;20137;-67
2021/05/27 06:45:13;;;;;;;6.95;1.90;;;;;;;11.37;80.22;100348.56;5042522;28;20528;-67
2021/05/27 06:47:39;;;;;;;2.65;1.50;;;;;;;11.16;79.19;100347.69;5049462;28;20032;-66
2021/05/27 06:50:06;;;;;;;7.68;2.63;;;;;;;11.50;78.21;100346.50;5052120;28;20017;-66
2021/05/27 06:52:31;;;;;;;4.25;1.83;;;;;;;11.37;79.60;100361.47;5050804;28;20045;-67
2021/05/27 06:54:56;;;;;;;5.85;2.08;;;;;;;11.53;77.16;100359.50;5052111;28;20029;-67
2021/05/27 06:57:22;;;;;;;6.68;2.10;;;;;;;11.73;78.41;100356.84;5046399;28;20494;-67
2021/05/27 06:59:48;;;;;;;6.47;2.15;;;;;;;11.73;78.06;100362.00;5041143;28;20104;-66
2021/05/27 07:02:13;;;;;;;3.60;1.60;;;;;;;11.67;77.70;100368.69;5047075;28;20028;-67
2021/05/27 07:04:39;;;;;;;4.47;1.70;;;;;;;11.49;75.97;100367.94;5048020;28;20024;-67
2021/05/27 07:07:04;;;;;;;7.70;2.20;;;;;;;11.47;77.81;100364.41;5048006;28;20040;-67
2021/05/27 07:09:29;;;;;;;3.45;1.85;;;;;;;11.55;77.93;100363.03;5049900;28;20024;-67
2021/05/27 07:11:56;;;;;;;7.40;2.55;;;;;;;11.86;77.33;100372.00;5044648;28;20013;-66
2021/05/27 07:14:21;;;;;;;8.57;2.55;;;;;;;12.14;76.13;100375.69;5045917;28;20401;-67
2021/05/27 07:16:48;;;;;;;8.27;2.42;;;;;;;12.13;74.15;100379.09;5037197;28;20083;-66
2021/05/27 07:19:26;;;;;;;7.88;2.65;;;;;;;12.43;73.90;100368.19;5035288;28;20377;-66
2021/05/27 07:21:52;;;;;;;9.93;2.55;;;;;;;12.88;73.47;100368.91;5040912;28;20100;-67
2021/05/27 07:24:18;;;;;;;9.43;2.60;;;;;;;13.09;71.84;100367.06;5047873;28;20017;-67
2021/05/27 07:26:43;;;;;;;8.43;2.30;;;;;;;12.69;72.70;100373.44;5045370;28;20470;-67
2021/05/27 07:29:09;;;;;;;7.82;2.88;;;;;;;12.81;72.57;100371.28;5048931;28;20024;-66
2021/05/27 07:31:37;;;;;;;11.75;2.75;;;;;;;12.67;72.14;100382.81;5044494;28;20030;-67
2021/05/27 07:34:03;;;;;;;7.13;2.78;;;;;;;11.98;75.56;100390.56;5028708;28;20037;-66
2021/05/27 07:36:28;;;;;;;5.07;2.30;;;;;;;11.66;77.54;100392.72;5042655;28;20079;-67
2021/05/27 07:38:53;;;;;;;8.73;2.58;;;;;;;11.58;78.62;100399.28;5043213;28;20408;-68
2021/05/27 07:41:19;;;;;;;5.85;2.22;;;;;;;11.68;77.60;100401.41;5045157;28;20021;-67
2021/05/27 07:43:44;;;;;;;4.60;1.75;;;;;;;11.47;77.24;100405.69;5041980;28;20029;-68
2021/05/27 07:46:10;;;;;;;3.30;1.70;;;;;;;11.39;78.06;100408.84;5044168;28;20021;-68
2021/05/27 07:48:36;;;;;;;5.30;2.22;;;;;;;11.43;77.42;100414.13;5043573;28;20025;-68
2021/05/27 07:51:02;;;;;;;8.45;2.60;;;;;;;11.56;77.99;100416.38;5042451;28;20083;-68
2021/05/27 07:53:30;;;;;;;5.32;2.88;;;;;;;11.77;78.01;100415.50;5043456;28;20472;-68
2021/05/27 07:55:55;;;;;;;6.97;3.45;;;;;;;11.72;78.16;100417.00;5043239;28;20025;-68
2021/05/27 07:58:21;;;;;;;6.93;2.92;;;;;;;11.55;78.36;100419.78;5045182;28;20032;-68
2021/05/27 08:00:46;;;;;;;7.32;3.92;;;;;;;11.68;80.13;100422.06;5043278;28;20017;-68
2021/05/27 08:03:12;;;;;;;5.30;3.85;;;;;;;11.90;80.14;100425.50;5028320;28;20017;-68
2021/05/27 08:05:38;;;;;;;8.38;4.60;;;;;;;11.61;79.67;100430.34;5043855;28;20025;-67
2021/05/27 08:08:04;;;;;;;8.07;4.22;;;;;;;11.52;80.45;100429.97;5045205;28;20017;-68
2021/05/27 08:10:29;;;;;;;7.43;4.35;;;;;;;11.43;81.10;100430.47;5042316;28;20021;-68
2021/05/27 08:12:55;;;;;;;6.90;4.13;;;;;;;11.43;80.64;100440.78;5042604;28;20033;-68
2021/05/27 08:15:20;;;;;;;13.05;4.53;;;;;;;11.67;80.36;100440.06;5043527;28;20095;-68
2021/05/27 08:17:46;;;;;;;11.50;4.15;;;;;;;11.85;79.95;100445.09;5042213;28;20446;-68
2021/05/27 08:20:12;;;;;;;8.80;4.10;;;;;;;11.72;78.66;100448.88;5041439;28;20089;-68
2021/05/27 08:22:38;;;;;;;10.40;4.85;;;;;;;11.78;79.69;100459.44;5041254;28;20025;-68
2021/05/27 08:25:05;;;;;;;6.97;3.85;;;;;;;11.93;79.16;100466.91;5042854;28;20028;-69
2021/05/27 08:27:30;;;;;;;8.57;4.25;;;;;;;12.07;78.66;100458.88;5042748;28;20068;-69
2021/05/27 08:29:56;;;;;;;10.88;4.78;;;;;;;11.95;77.73;100457.53;5038431;28;20029;-72
2021/05/27 08:32:22;;;;;;;9.30;4.20;;;;;;;12.02;79.08;100462.97;5047244;28;20074;-68
2021/05/27 08:34:48;;;;;;;8.05;4.00;;;;;;;11.83;78.95;100462.19;5039337;28;20013;-66
2021/05/27 08:37:13;;;;;;;8.32;4.25;;;;;;;12.15;79.51;100475.56;5040767;28;20108;-67
2021/05/27 08:39:39;;;;;;;6.45;3.40;;;;;;;12.10;77.75;100474.50;5042245;28;20421;-67
2021/05/27 08:42:06;;;;;;;6.35;3.10;;;;;;;12.40;76.24;100471.38;5044166;28;20017;-68
2021/05/27 08:44:36;;;;;;;5.45;3.03;;;;;;;12.56;75.74;100486.66;5047493;28;20029;-68
2021/05/27 08:47:01;;;;;;;5.22;3.63;;;;;;;12.65;75.89;100487.84;5047481;28;20497;-69
2021/05/27 08:49:29;;;;;;;12.15;3.92;;;;;;;12.88;75.01;100493.00;5048394;28;20113;-69
2021/05/27 08:51:54;;;;;;;6.65;3.20;;;;;;;13.69;73.46;100488.97;5023357;28;20017;-69
2021/05/27 08:54:20;;;;;;;4.70;2.90;;;;;;;14.10;71.05;100491.19;5041371;28;20086;-69
2021/05/27 08:56:45;;;;;;;8.98;3.38;;;;;;;14.45;70.98;100504.41;5042364;28;20040;-68
2021/05/27 08:59:11;;;;;;;4.95;2.38;;;;;;;14.05;70.33;100503.13;5042817;28;20029;-69
2021/05/27 09:01:59;;;;;;;3.33;2.53;;;;;;;13.93;72.74;100507.06;5043083;28;20025;-66
2021/05/27 09:04:25;;;;;;;3.83;2.20;;;;;;;13.27;72.82;100521.16;5044993;28;20021;-67
2021/05/27 09:06:51;;;;;;;4.63;1.73;;;;;;;13.41;72.44;100516.47;5041562;28;20504;-68
2021/05/27 09:09:16;;;;;;;4.57;2.40;;;;;;;13.41;74.24;100519.94;5041449;28;20021;-67
2021/05/27 09:11:45;;;;;;;3.63;2.05;;;;;;;13.46;73.30;100521.84;5042964;28;20047;-68
2021/05/27 09:14:11;;;;;;;6.65;2.33;;;;;;;13.35;73.90;100524.00;5043999;28;20131;-67
2021/05/27 09:16:38;;;;;;;4.05;1.90;;;;;;;13.66;72.94;100530.28;5047485;28;20108;-67
2021/05/27 09:19:12;;;;;;;3.35;1.80;;;;;;;13.98;71.38;100538.31;5021012;28;20021;-69
2021/05/27 09:21:40;;;;;;;4.38;1.75;;;;;;;14.01;69.76;100541.84;5035370;28;20025;-69
2021/05/27 09:24:07;;;;;;;5.43;2.33;;;;;;;13.95;72.28;100543.38;5046050;28;20023;-68
2021/05/27 09:26:48;;;;;;;3.08;1.52;;;;;;;13.75;71.96;100540.09;5046608;28;20037;-68
2021/05/27 09:29:14;;;;;;;3.50;2.28;;;;;;;13.70;73.81;100548.59;5044366;28;20017;-67
2021/05/27 09:32:04;;;;;;;5.25;2.08;;;;;;;13.55;73.63;100553.22;5041437;28;20549;-69
2021/05/27 09:34:46;;;;;;;4.95;2.08;;;;;;;13.71;73.67;100560.69;5042290;28;20021;-69
2021/05/27 09:37:28;;;;;;;4.05;2.10;;;;;;;13.94;72.01;100558.03;5042470;28;20386;-69
2021/05/27 09:39:54;;;;;;;4.03;2.42;;;;;;;14.09;71.67;100561.94;5041067;28;20025;-68
2021/05/27 09:42:20;;;;;;;4.63;2.45;;;;;;;14.47;70.02;100564.94;5040734;28;20021;-68
2021/05/27 09:44:46;;;;;;;4.05;2.58;;;;;;;15.36;68.46;100571.06;5041911;28;20013;-68
2021/05/27 09:47:12;;;;;;;5.50;2.50;;;;;;;16.02;65.21;100564.22;5040785;28;20087;-68
2021/05/27 09:50:07;;;;;;;2.85;2.15;;;;;;;16.18;65.24;100569.81;5040856;28;20021;-69
2021/05/27 09:52:40;;;;;;;3.67;2.45;;;;;;;16.32;64.69;100576.22;5038333;28;20043;-68
2021/05/27 09:55:16;;;;;;;4.07;2.28;;;;;;;16.38;65.61;100574.63;5041417;28;20033;-69
2021/05/27 09:57:43;;;;;;;3.80;2.30;;;;;;;15.97;63.07;100575.38;5040329;28;20021;-68
2021/05/27 10:00:21;;;;;;;4.22;2.60;;;;;;;15.74;64.37;100581.66;5040975;28;20044;-68
2021/05/27 10:02:47;;;;;;;6.32;2.72;;;;;;;15.61;66.21;100583.03;5041128;28;20021;-69
2021/05/27 10:05:14;;;;;;;3.08;2.22;;;;;;;15.46;65.89;100583.50;5041608;28;20437;-68
2021/05/27 10:07:44;;;;;;;3.47;2.33;;;;;;;15.12;67.12;100582.50;5040888;28;20036;-67
2021/05/27 10:10:12;;;;;;;3.60;2.28;;;;;;;15.14;66.86;100585.16;5042116;28;20020;-68
2021/05/27 10:12:51;;;;;;;4.70;2.95;;;;;;;14.97;66.16;100592.41;5040697;28;20391;-67
2021/05/27 10:15:19;;;;;;;4.88;2.50;;;;;;;15.23;66.32;100607.88;5040729;28;20028;-68
2021/05/27 10:17:49;;;;;;;4.47;2.25;;;;;;;15.54;65.36;100601.00;5040446;28;20090;-67
2021/05/27 10:20:19;;;;;;;5.40;2.10;;;;;;;15.33;64.31;100602.13;5041472;28;20029;-67
2021/05/27 10:22:45;;;;;;;5.10;2.47;;;;;;;15.68;64.70;100604.88;5040835;28;20435;-67
2021/05/27 10:25:13;;;;;;;4.90;2.60;;;;;;;15.73;65.10;100603.28;5044381;28;20048;-68
2021/05/27 10:27:45;;;;;;;6.78;2.63;;;;;;;15.59;63.78;100612.41;5044683;28;20023;-68
2021/05/27 10:30:11;;;;;;;2.97;1.65;;;;;;;15.36;64.04;100607.41;5038447;28;20387;-67
2021/05/27 10:32:46;;;;;;;3.63;1.88;;;;;;;15.61;62.16;100608.13;5037062;28;20510;-67
2021/05/27 10:35:12;;;;;;;3.55;2.10;;;;;;;22.54;45.83;100620.44;5041724;28;20032;-69
2021/05/27 10:37:38;;;;;;;4.28;1.92;;;;;;;24.10;41.47;100613.78;5043353;28;20025;-70
2021/05/27 10:40:30;;;;;;;4.75;1.80;;;;;;;23.75;42.57;100627.97;5043320;28;20052;-70
2021/05/27 10:43:04;;;;;;;4.15;1.70;;;;;;;23.70;40.15;100619.25;5039626;28;20186;-70
2021/05/27 10:45:32;;;;;;;2.60;1.27;;;;;;;21.16;45.67;100631.41;5044404;28;20029;-69
2021/05/27 10:48:16;;;;;;;3.60;2.03;;;;;;;20.25;50.24;100626.38;5045776;28;20480;-69
2021/05/27 10:53:40;;;;;;;1.70;1.00;;;;;;;19.27;49.33;100626.13;5045162;28;20033;-69
2021/05/27 10:56:09;;;;;;;;;;;;;;;20.69;48.84;100628.50;5047245;28;20017;-69
2021/05/27 11:01:17;;;;;;;2.17;1.02;;;;;;;19.11;50.96;100639.84;5039961;28;20033;-71
2021/05/27 11:03:50;;;;;;;2.00;0.85;;;;;;;20.05;47.71;100641.84;5034539;28;20017;-71
2021/05/27 11:06:38;;;;;;;1.55;0.88;;;;;;;21.23;47.83;100638.44;5034293;28;20475;-71
2021/05/27 11:12:28;;;;;;;2.83;0.90;;;;;;;21.45;45.60;100644.66;5032477;28;20028;-68
2021/05/27 11:14:54;;;;;;;3.20;0.88;;;;;;;21.11;43.27;100643.63;5035304;28;20033;-69
2021/05/27 11:17:23;;;;;;;2.78;0.70;;;;;;;21.50;45.91;100649.06;5034589;28;20036;-69
2021/05/27 11:25:15;;;;;;;2.85;0.40;;;;;;;16.52;60.04;100685.06;5044045;28;20080;-68
2021/05/27 11:31:05;;;;;;;3.47;0.80;;;;;;;15.09;66.64;100686.16;5041092;28;20044;-67
2021/05/27 11:33:32;;;;;;;1.77;0.60;;;;;;;15.06;67.88;100706.81;5041059;28;20091;-67
2021/05/27 11:36:06;;;;;;;0.93;0.47;;;;;;;15.10;65.41;100703.50;5047358;28;20124;-67
2021/05/27 11:38:34;;;;;;;0.73;0.40;;;;;;;15.28;67.01;100713.59;5040714;28;20037;-67
2021/05/27 11:41:05;;;;;;;1.73;0.85;;;;;;;15.75;67.09;100705.47;5033161;28;20018;-67
2021/05/27 11:43:33;;;;;;;0.95;0.47;;;;;;;16.45;63.94;100706.53;5040332;28;20017;-67
2021/05/27 11:46:01;;;;;;;0.85;0.80;;;;;;;16.59;63.10;100707.78;5039372;28;20103;-67
2021/05/27 11:49:12;;;;;;;2.42;0.70;;;;;;;17.20;60.98;100717.94;5044024;28;20021;-68
2021/05/27 11:51:21;;;;;;;1.27;0.45;;;;;;;17.66;58.18;100712.00;5040820;28;20040;-67
2021/05/27 11:53:52;;;;;;;2.95;0.80;;;;;;;18.04;60.54;100718.88;5038896;28;20471;-67